createdAt,value
2017-08-13T00:01:38.791Z,7.00
2017-08-13T00:04:07.455Z,6.40
2017-08-13T00:06:36.530Z,5.60
2017-08-13T00:09:04.902Z,6.27
2017-08-13T00:11:33.256Z,5.37
2017-08-13T00:14:01.571Z,5.80
2017-08-13T00:16:30.657Z,5.27
2017-08-13T00:18:59.037Z,5.27
2017-08-13T00:21:27.391Z,5.50
2017-08-13T00:23:55.653Z,5.20
2017-08-13T00:26:23.949Z,5.87
2017-08-13T00:28:52.281Z,6.20
2017-08-13T00:31:20.595Z,5.73
2017-08-13T00:33:49.022Z,4.50
2017-08-13T00:36:18.203Z,4.43
2017-08-13T00:38:46.422Z,5.50
2017-08-13T00:41:14.722Z,5.60
2017-08-13T00:43:43.025Z,5.43
2017-08-13T00:46:11.505Z,4.40
2017-08-13T00:48:39.914Z,5.80
2017-08-13T00:51:08.365Z,6.07
2017-08-13T00:53:36.625Z,6.23
2017-08-13T00:56:04.970Z,6.10
2017-08-13T00:58:33.261Z,6.73
2017-08-13T01:01:01.573Z,8.17
2017-08-13T01:03:30.039Z,5.80
2017-08-13T01:05:58.354Z,6.27
2017-08-13T01:08:27.442Z,6.00
2017-08-13T01:10:56.482Z,7.37
2017-08-13T01:13:24.799Z,11.03
2017-08-13T01:15:53.191Z,6.00
2017-08-13T01:18:22.239Z,6.63
2017-08-13T01:20:50.512Z,6.27
2017-08-13T01:23:18.786Z,7.30
2017-08-13T01:25:47.722Z,6.37
2017-08-13T01:28:15.987Z,7.10
2017-08-13T01:30:44.309Z,5.97
2017-08-13T01:33:12.583Z,6.10
2017-08-13T01:35:40.858Z,6.93
2017-08-13T01:38:09.102Z,6.93
2017-08-13T01:40:38.136Z,7.60
2017-08-13T01:43:06.396Z,5.53
2017-08-13T01:45:35.426Z,6.70
2017-08-13T01:48:03.681Z,6.70
2017-08-13T01:50:31.951Z,7.67
2017-08-13T01:53:00.236Z,7.40
2017-08-13T01:55:28.477Z,7.40
2017-08-13T01:57:57.520Z,7.10
2017-08-13T02:00:25.760Z,6.43
2017-08-13T02:02:54.771Z,7.93
2017-08-13T02:05:23.061Z,8.60
2017-08-13T02:07:51.332Z,6.67
2017-08-13T02:10:19.619Z,8.20
2017-08-13T02:12:47.908Z,8.60
2017-08-13T02:15:16.978Z,8.10
2017-08-13T02:17:45.227Z,8.27
2017-08-13T02:20:14.243Z,8.30
2017-08-13T02:22:42.508Z,9.27
2017-08-13T02:25:10.785Z,9.03
2017-08-13T02:27:39.023Z,9.90
2017-08-13T02:30:07.283Z,11.27
2017-08-13T02:32:35.567Z,9.90
2017-08-13T02:35:04.597Z,8.73
2017-08-13T02:37:32.931Z,7.60
2017-08-13T02:40:01.176Z,6.90
2017-08-13T02:42:29.483Z,8.27
2017-08-13T02:44:57.758Z,7.90
2017-08-13T02:47:26.003Z,8.40
2017-08-13T02:49:54.284Z,13.00
2017-08-13T02:52:22.537Z,12.07
2017-08-13T02:54:50.858Z,9.33
2017-08-13T02:57:19.207Z,11.40
2017-08-13T02:59:47.471Z,12.83
2017-08-13T03:02:15.741Z,11.60
2017-08-13T03:04:44.004Z,14.33
2017-08-13T03:07:13.099Z,15.43
2017-08-13T03:09:42.115Z,14.60
2017-08-13T03:12:10.394Z,13.80
2017-08-13T03:14:38.652Z,14.30
2017-08-13T03:17:07.697Z,14.13
2017-08-13T03:19:35.944Z,13.60
2017-08-13T03:22:04.195Z,16.53
2017-08-13T03:24:33.232Z,15.33
2017-08-13T03:27:01.479Z,14.17
2017-08-13T03:29:29.759Z,13.33
2017-08-13T03:31:58.016Z,15.87
2017-08-13T03:34:27.051Z,16.13
2017-08-13T03:36:55.410Z,21.37
2017-08-13T03:39:23.687Z,14.50
2017-08-13T03:41:51.948Z,14.67
2017-08-13T03:44:20.214Z,14.90
2017-08-13T03:46:49.236Z,14.47
2017-08-13T03:49:17.516Z,14.07
2017-08-13T03:51:45.763Z,15.47
2017-08-13T03:54:14.803Z,15.60
2017-08-13T03:56:43.048Z,16.37
2017-08-13T03:59:11.310Z,15.47
2017-08-13T04:01:39.748Z,15.00
2017-08-13T04:04:08.165Z,17.50
2017-08-13T04:06:37.217Z,19.20
2017-08-13T04:09:05.459Z,19.57
2017-08-13T04:11:33.755Z,15.77
2017-08-13T04:14:02.012Z,16.10
2017-08-13T04:16:30.291Z,16.60
2017-08-13T04:18:58.571Z,15.47
2017-08-13T04:21:26.819Z,17.63
2017-08-13T04:23:55.859Z,17.03
2017-08-13T04:26:24.123Z,16.17
2017-08-13T04:28:52.382Z,18.07
2017-08-13T04:31:20.659Z,18.47
2017-08-13T04:33:48.912Z,18.00
2017-08-13T04:36:17.959Z,15.67
2017-08-13T04:38:46.228Z,16.93
2017-08-13T04:41:14.504Z,18.53
2017-08-13T04:43:42.770Z,19.30
2017-08-13T04:46:11.056Z,18.47
2017-08-13T04:48:39.295Z,17.63
2017-08-13T04:51:07.609Z,16.90
2017-08-13T04:53:35.880Z,14.77
2017-08-13T04:56:04.155Z,15.73
2017-08-13T04:58:32.423Z,17.40
2017-08-13T05:01:00.699Z,16.03
2017-08-13T05:03:29.042Z,18.40
2017-08-13T05:05:57.446Z,19.03
2017-08-13T05:08:25.902Z,18.23
2017-08-13T05:10:54.127Z,17.67
2017-08-13T05:13:22.386Z,18.77
2017-08-13T05:15:50.648Z,21.53
2017-08-13T05:18:19.694Z,20.47
2017-08-13T05:20:47.951Z,24.80
2017-08-13T05:23:16.240Z,24.20
2017-08-13T05:25:44.499Z,19.60
2017-08-13T05:28:12.774Z,25.33
2017-08-13T05:30:41.032Z,22.60
2017-08-13T05:33:09.303Z,21.73
2017-08-13T05:35:39.047Z,22.73
2017-08-13T05:38:07.579Z,22.63
2017-08-13T05:40:35.910Z,22.77
2017-08-13T05:43:04.184Z,21.57
2017-08-13T05:45:32.457Z,22.67
2017-08-13T05:48:00.713Z,21.13
2017-08-13T05:50:28.987Z,22.60
2017-08-13T05:52:57.251Z,21.40
2017-08-13T05:55:26.363Z,20.10
2017-08-13T05:57:54.665Z,19.17
2017-08-13T06:00:22.899Z,19.50
2017-08-13T06:02:51.261Z,19.80
2017-08-13T06:05:19.535Z,19.47
2017-08-13T06:07:47.812Z,22.00
2017-08-13T06:10:16.254Z,21.70
2017-08-13T06:12:44.503Z,18.97
2017-08-13T06:15:12.786Z,21.03
2017-08-13T06:17:41.042Z,21.93
2017-08-13T06:20:09.385Z,19.97
2017-08-13T06:22:37.714Z,16.87
2017-08-13T06:25:05.951Z,18.77
2017-08-13T06:27:35.019Z,20.90
2017-08-13T06:30:03.295Z,21.70
2017-08-13T06:32:31.581Z,21.40
2017-08-13T06:34:59.948Z,19.40
2017-08-13T06:37:28.227Z,19.50
2017-08-13T06:39:56.559Z,18.93
2017-08-13T06:42:24.836Z,18.33
2017-08-13T06:44:53.232Z,16.27
2017-08-13T06:47:21.513Z,18.90
2017-08-13T06:49:49.775Z,11.47
2017-08-13T06:52:18.029Z,17.13
2017-08-13T06:54:47.096Z,17.23
2017-08-13T06:57:15.372Z,17.33
2017-08-13T06:59:43.657Z,17.83
2017-08-13T07:02:12.047Z,17.53
2017-08-13T07:04:40.320Z,18.70
2017-08-13T07:07:09.975Z,22.80
2017-08-13T07:09:38.255Z,18.57
2017-08-13T07:12:06.517Z,20.57
2017-08-13T07:14:34.811Z,18.77
2017-08-13T07:17:03.070Z,18.80
2017-08-13T07:19:31.372Z,18.30
2017-08-13T07:21:59.789Z,17.77
2017-08-13T07:24:28.052Z,18.07
2017-08-13T07:26:56.449Z,17.47
2017-08-13T07:29:24.740Z,14.40
2017-08-13T07:31:53.791Z,13.50
2017-08-13T07:34:22.071Z,15.30
2017-08-13T07:36:50.347Z,21.17
2017-08-13T07:39:18.708Z,14.90
2017-08-13T07:41:46.960Z,16.53
2017-08-13T07:44:15.235Z,17.23
2017-08-13T07:46:43.552Z,15.57
2017-08-13T07:49:11.815Z,15.97
2017-08-13T07:51:40.091Z,18.60
2017-08-13T07:54:08.362Z,15.40
2017-08-13T07:56:36.634Z,15.57
2017-08-13T07:59:04.909Z,14.50
2017-08-13T08:01:33.167Z,13.00
2017-08-13T08:04:01.492Z,12.93
2017-08-13T08:06:29.745Z,18.27
2017-08-13T08:08:58.032Z,15.40
2017-08-13T08:11:26.475Z,14.90
2017-08-13T08:13:55.533Z,14.13
2017-08-13T08:16:23.779Z,17.87
2017-08-13T08:18:52.073Z,14.97
2017-08-13T08:21:20.365Z,15.67
2017-08-13T08:23:48.656Z,14.97
2017-08-13T08:26:17.705Z,13.70
2017-08-13T08:28:46.034Z,13.63
2017-08-13T08:31:15.064Z,14.17
2017-08-13T08:33:43.370Z,15.53
2017-08-13T08:36:11.780Z,17.37
2017-08-13T08:38:40.808Z,15.23
2017-08-13T08:41:09.085Z,16.97
2017-08-13T08:43:37.360Z,15.70
2017-08-13T08:46:05.633Z,16.30
2017-08-13T08:48:33.963Z,13.13
2017-08-13T08:51:03.048Z,14.77
2017-08-13T08:53:31.351Z,14.90
2017-08-13T08:56:00.642Z,14.83
2017-08-13T08:58:29.743Z,14.90
2017-08-13T09:00:58.851Z,14.37
2017-08-13T09:03:27.919Z,13.53
2017-08-13T09:05:56.309Z,12.60
2017-08-13T09:08:24.575Z,12.00
2017-08-13T09:10:52.859Z,9.67
2017-08-13T09:13:21.139Z,11.00
2017-08-13T09:15:49.395Z,11.63
2017-08-13T09:18:17.676Z,12.07
2017-08-13T09:20:45.927Z,11.53
2017-08-13T09:23:14.206Z,12.67
2017-08-13T09:25:42.485Z,14.33
2017-08-13T09:28:10.831Z,11.67
2017-08-13T09:30:39.121Z,12.93
2017-08-13T09:33:07.396Z,11.23
2017-08-13T09:35:35.668Z,8.67
2017-08-13T09:38:03.931Z,7.50
2017-08-13T09:40:33.004Z,8.80
2017-08-13T09:43:01.317Z,10.07
2017-08-13T09:45:29.600Z,8.70
2017-08-13T09:47:57.884Z,8.60
2017-08-13T09:50:26.133Z,8.63
2017-08-13T09:52:54.428Z,7.13
2017-08-13T09:55:22.706Z,6.60
2017-08-13T09:57:50.972Z,7.20
2017-08-13T10:00:19.266Z,8.87
2017-08-13T10:02:47.544Z,8.30
2017-08-13T10:05:15.820Z,8.57
2017-08-13T10:07:44.171Z,11.60
2017-08-13T10:10:13.176Z,10.13
2017-08-13T10:12:41.474Z,8.17
2017-08-13T10:15:09.774Z,9.10
2017-08-13T10:17:38.028Z,8.30
2017-08-13T10:20:06.290Z,6.00
2017-08-13T10:22:34.575Z,5.43
2017-08-13T10:25:02.864Z,6.63
2017-08-13T10:27:31.105Z,7.70
2017-08-13T10:29:59.362Z,7.87
2017-08-13T10:32:28.497Z,8.50
2017-08-13T10:34:56.770Z,8.23
2017-08-13T10:37:25.022Z,9.50
2017-08-13T10:39:53.303Z,8.33
2017-08-13T10:42:21.550Z,8.80
2017-08-13T10:44:49.927Z,11.47
2017-08-13T10:47:18.191Z,10.83
2017-08-13T10:49:46.482Z,10.10
2017-08-13T10:52:14.769Z,9.97
2017-08-13T10:54:43.832Z,10.50
2017-08-13T10:57:12.132Z,10.47
2017-08-13T10:59:41.189Z,10.07
2017-08-13T11:02:09.601Z,9.20
2017-08-13T11:04:37.899Z,9.37
2017-08-13T11:07:06.984Z,10.37
2017-08-13T11:09:35.264Z,10.70
2017-08-13T11:12:04.280Z,7.50
2017-08-13T11:14:32.576Z,6.67
2017-08-13T11:17:00.822Z,6.83
2017-08-13T11:19:29.100Z,12.23
2017-08-13T11:21:57.365Z,7.87
2017-08-13T11:24:26.408Z,9.17
2017-08-13T11:26:54.688Z,10.50
2017-08-13T11:29:22.963Z,9.03
2017-08-13T11:31:51.315Z,15.07
2017-08-13T11:34:19.796Z,15.03
2017-08-13T11:36:48.827Z,12.00
2017-08-13T11:39:18.112Z,10.27
2017-08-13T11:41:46.385Z,10.93
2017-08-13T11:44:14.713Z,11.20
2017-08-13T11:46:43.756Z,14.53
2017-08-13T11:49:12.357Z,11.60
2017-08-13T11:51:40.627Z,12.10
2017-08-13T11:54:08.893Z,9.90
2017-08-13T11:56:37.213Z,10.87
2017-08-13T11:59:05.634Z,10.73
2017-08-13T12:01:33.891Z,12.20
2017-08-13T12:04:02.175Z,10.03
2017-08-13T12:06:30.600Z,11.10
2017-08-13T12:08:58.909Z,8.80
2017-08-13T12:11:27.363Z,8.60
2017-08-13T12:13:55.698Z,10.33
2017-08-13T12:16:24.001Z,5.63
2017-08-13T12:18:53.084Z,6.17
2017-08-13T12:21:21.337Z,6.13
2017-08-13T12:23:49.663Z,6.47
2017-08-13T12:26:17.894Z,6.20
2017-08-13T12:28:46.195Z,9.87
2017-08-13T12:31:14.457Z,6.10
2017-08-13T12:33:42.712Z,5.40
2017-08-13T12:36:11.204Z,6.90
2017-08-13T12:38:39.490Z,5.20
2017-08-13T12:41:07.780Z,5.70
2017-08-13T12:43:36.085Z,6.43
2017-08-13T12:46:04.322Z,4.77
2017-08-13T12:48:32.646Z,5.00
2017-08-13T12:51:01.691Z,5.27
2017-08-13T12:53:30.027Z,6.33
2017-08-13T12:55:58.300Z,4.63
2017-08-13T12:58:27.330Z,6.30
2017-08-13T13:00:55.572Z,5.00
2017-08-13T13:03:25.379Z,4.73
2017-08-13T13:05:54.442Z,5.00
2017-08-13T13:08:22.718Z,4.33
2017-08-13T13:10:51.010Z,4.07
2017-08-13T13:13:19.315Z,7.03
2017-08-13T13:15:54.933Z,3.57
2017-08-13T13:18:23.224Z,6.40
2017-08-13T13:20:51.472Z,5.37
2017-08-13T13:23:19.788Z,4.03
2017-08-13T13:25:48.863Z,4.20
2017-08-13T13:28:17.137Z,3.90
2017-08-13T13:30:45.475Z,3.40
2017-08-13T13:33:13.774Z,8.17
2017-08-13T13:35:42.046Z,4.30
2017-08-13T13:38:10.301Z,5.13
2017-08-13T13:40:38.598Z,2.70
2017-08-13T13:43:06.858Z,2.40
2017-08-13T13:45:35.113Z,5.73
2017-08-13T13:48:03.536Z,2.67
2017-08-13T13:50:31.797Z,3.60
2017-08-13T13:53:00.083Z,3.90
2017-08-13T13:55:28.420Z,3.50
2017-08-13T13:57:56.802Z,3.07
2017-08-13T14:00:25.083Z,3.60
2017-08-13T14:02:53.342Z,3.03
2017-08-13T14:05:21.622Z,3.60
2017-08-13T14:07:49.892Z,4.03
2017-08-13T14:10:18.960Z,3.07
2017-08-13T14:12:47.275Z,6.20
2017-08-13T14:15:15.524Z,5.60
2017-08-13T14:17:43.799Z,6.10
2017-08-13T14:20:12.865Z,3.90
2017-08-13T14:22:41.271Z,5.83
2017-08-13T14:25:09.501Z,3.53
2017-08-13T14:27:37.899Z,5.60
2017-08-13T14:30:06.193Z,7.30
2017-08-13T14:32:34.472Z,4.10
2017-08-13T14:35:02.790Z,4.20
2017-08-13T14:37:31.039Z,3.77
2017-08-13T14:39:59.505Z,4.23
2017-08-13T14:42:27.766Z,5.80
2017-08-13T14:44:56.038Z,7.97
2017-08-13T14:47:24.531Z,3.50
2017-08-13T14:49:52.796Z,6.10
2017-08-13T14:52:21.283Z,5.40
2017-08-13T14:54:49.549Z,4.13
2017-08-13T14:57:17.864Z,4.53
2017-08-13T14:59:46.639Z,4.67
2017-08-13T15:02:14.925Z,6.77
2017-08-13T15:04:44.024Z,5.28
2017-08-13T15:07:12.346Z,6.20
2017-08-13T15:09:40.646Z,4.80
2017-08-13T15:12:08.894Z,4.80
2017-08-13T15:14:37.171Z,5.40
2017-08-13T15:17:05.442Z,5.40
2017-08-13T15:19:33.744Z,6.17
2017-08-13T15:22:02.072Z,4.77
2017-08-13T15:24:30.370Z,6.70
2017-08-13T15:26:58.666Z,4.87
2017-08-13T15:29:26.924Z,6.53
2017-08-13T15:31:55.376Z,5.07
2017-08-13T15:34:23.602Z,6.33
2017-08-13T15:36:51.891Z,7.40
2017-08-13T15:39:20.319Z,6.53
2017-08-13T15:41:48.639Z,5.53
2017-08-13T15:44:16.965Z,5.77
2017-08-13T15:46:46.031Z,8.07
2017-08-13T15:49:14.339Z,5.57
2017-08-13T15:51:42.624Z,11.63
2017-08-13T15:54:10.920Z,8.90
2017-08-13T15:56:39.354Z,8.60
2017-08-13T15:59:08.516Z,8.73
2017-08-13T16:01:36.832Z,8.60
2017-08-13T16:04:05.160Z,9.53
2017-08-13T16:06:33.485Z,8.73
2017-08-13T16:09:02.555Z,7.30
2017-08-13T16:11:30.922Z,8.43
2017-08-13T16:13:59.191Z,7.50
2017-08-13T16:16:27.505Z,6.37
2017-08-13T16:18:56.603Z,6.90
2017-08-13T16:21:24.983Z,7.77
2017-08-13T16:23:53.265Z,7.00
2017-08-13T16:26:22.322Z,5.83
2017-08-13T16:28:50.733Z,5.73
2017-08-13T16:31:19.812Z,9.10
2017-08-13T16:33:48.101Z,6.43
2017-08-13T16:36:16.489Z,6.10
2017-08-13T16:38:44.840Z,5.87
2017-08-13T16:41:13.150Z,5.27
2017-08-13T16:43:41.462Z,5.67
2017-08-13T16:46:09.754Z,5.07
2017-08-13T16:48:38.026Z,6.70
2017-08-13T16:51:06.340Z,4.80
2017-08-13T16:53:34.646Z,5.43
2017-08-13T16:56:02.976Z,4.87
2017-08-13T16:58:31.251Z,4.60
2017-08-13T17:00:59.602Z,5.13
2017-08-13T17:03:27.897Z,4.43
2017-08-13T17:05:56.322Z,4.40
2017-08-13T17:08:24.636Z,4.20
2017-08-13T17:10:53.001Z,3.63
2017-08-13T17:13:23.654Z,3.50
2017-08-13T17:15:52.882Z,7.10
2017-08-13T17:18:21.991Z,6.30
2017-08-13T17:20:50.390Z,3.50
2017-08-13T17:23:19.578Z,4.23
2017-08-13T17:25:47.876Z,2.93
2017-08-13T17:28:18.039Z,3.50
2017-08-13T17:33:40.019Z,3.73
2017-08-13T17:36:09.144Z,2.90
2017-08-13T17:38:37.432Z,2.83
2017-08-13T17:41:05.893Z,3.10
2017-08-13T17:43:34.323Z,2.40
2017-08-13T17:46:02.685Z,3.50
2017-08-13T17:48:31.030Z,3.40
2017-08-13T17:50:59.313Z,4.17
2017-08-13T17:53:27.907Z,3.47
2017-08-13T17:55:57.266Z,4.80
2017-08-13T17:58:25.907Z,3.27
2017-08-13T18:00:54.345Z,5.10
2017-08-13T18:03:22.649Z,2.70
2017-08-13T18:05:51.082Z,3.27
2017-08-13T18:08:19.547Z,2.80
2017-08-13T18:10:47.835Z,3.33
2017-08-13T18:13:16.907Z,3.90
2017-08-13T18:15:45.979Z,3.37
2017-08-13T18:18:14.285Z,4.23
2017-08-13T18:20:42.611Z,6.70
2017-08-13T18:23:10.933Z,5.40
2017-08-13T18:25:39.461Z,6.17
2017-08-13T18:28:07.796Z,7.13
2017-08-13T18:30:36.102Z,6.83
2017-08-13T18:33:04.427Z,4.50
2017-08-13T18:35:33.653Z,4.37
2017-08-13T18:38:01.906Z,4.00
2017-08-13T18:40:30.181Z,3.00
2017-08-13T18:42:59.304Z,3.70
2017-08-13T18:45:28.376Z,5.80
2017-08-13T18:47:56.680Z,4.93
2017-08-13T18:50:25.152Z,3.10
2017-08-13T18:52:53.538Z,3.40
2017-08-13T18:55:22.644Z,6.50
2017-08-13T18:57:51.338Z,4.07
2017-08-13T19:00:19.921Z,3.90
2017-08-13T19:02:48.687Z,6.00
2017-08-13T19:05:18.399Z,4.93
2017-08-13T19:07:47.083Z,9.23
2017-08-13T19:10:15.869Z,4.83
2017-08-13T19:12:44.672Z,6.00
2017-08-13T19:15:13.651Z,4.23
2017-08-13T19:17:42.440Z,5.27
2017-08-13T19:20:11.956Z,8.03
2017-08-13T19:22:40.745Z,6.10
2017-08-13T19:25:09.541Z,6.83
2017-08-13T19:27:39.044Z,6.70
2017-08-13T19:30:09.066Z,5.50
2017-08-13T19:32:38.153Z,4.83
2017-08-13T19:35:07.037Z,7.37
2017-08-13T19:37:35.921Z,7.27
2017-08-13T19:40:04.714Z,10.77
2017-08-13T19:42:33.626Z,4.80
2017-08-13T19:45:03.115Z,3.93
2017-08-13T19:47:32.310Z,4.20
2017-08-13T19:50:01.153Z,4.30
2017-08-13T19:52:30.812Z,5.57
2017-08-13T19:54:59.701Z,3.90
2017-08-13T19:57:28.685Z,7.70
2017-08-13T19:59:58.222Z,4.60
2017-08-13T20:02:27.185Z,6.17
2017-08-13T20:04:56.090Z,5.27
2017-08-13T20:07:25.193Z,5.30
2017-08-13T20:09:55.090Z,4.63
2017-08-13T20:12:23.780Z,4.33
2017-08-13T20:14:52.574Z,4.57
2017-08-13T20:17:23.710Z,4.73
2017-08-13T20:19:52.786Z,4.00
2017-08-13T20:22:21.099Z,4.03
2017-08-13T20:24:50.190Z,4.97
2017-08-13T20:27:18.542Z,4.20
2017-08-13T20:29:47.661Z,5.10
2017-08-13T20:32:16.773Z,4.67
2017-08-13T20:34:45.235Z,6.57
2017-08-13T20:37:13.605Z,5.17
2017-08-13T20:39:42.292Z,5.60
2017-08-13T20:42:11.388Z,8.60
2017-08-13T20:44:39.682Z,6.53
2017-08-13T20:47:08.836Z,5.57
2017-08-13T20:49:37.155Z,8.17
2017-08-13T20:52:06.293Z,7.10
2017-08-13T20:54:34.721Z,5.50
2017-08-13T20:57:03.041Z,8.97
2017-08-13T20:59:31.528Z,9.03
2017-08-13T21:02:00.103Z,5.23
2017-08-13T21:04:28.389Z,5.77
2017-08-13T21:06:56.690Z,5.37
2017-08-13T21:09:25.105Z,5.63
2017-08-13T21:11:53.345Z,7.40
2017-08-13T21:14:21.743Z,6.67
2017-08-13T21:16:50.902Z,7.23
2017-08-13T21:19:19.175Z,7.03
2017-08-13T21:21:48.406Z,6.60
2017-08-13T21:24:16.725Z,6.70
2017-08-13T21:26:45.002Z,6.37
2017-08-13T21:29:13.285Z,6.30
2017-08-13T21:31:41.632Z,5.90
2017-08-13T21:34:10.002Z,6.73
2017-08-13T21:36:38.269Z,6.17
2017-08-13T21:39:06.575Z,6.30
2017-08-13T21:41:34.864Z,8.43
2017-08-13T21:44:03.195Z,5.00
2017-08-13T21:46:31.536Z,6.40
2017-08-13T21:48:59.909Z,6.00
2017-08-13T21:51:28.200Z,6.27
2017-08-13T21:53:56.623Z,6.40
2017-08-13T21:56:24.916Z,6.67
2017-08-13T21:58:53.926Z,5.10
2017-08-13T22:01:22.358Z,5.00
2017-08-13T22:03:50.686Z,5.67
2017-08-13T22:06:19.762Z,6.90
2017-08-13T22:08:48.942Z,5.17
2017-08-13T22:11:17.975Z,5.63
2017-08-13T22:13:46.278Z,6.53
2017-08-13T22:16:14.589Z,5.43
2017-08-13T22:18:42.882Z,5.07
2017-08-13T22:21:11.926Z,4.40
2017-08-13T22:23:40.221Z,7.27
2017-08-13T22:26:08.485Z,5.37
2017-08-13T22:28:37.760Z,6.23
2017-08-13T22:31:06.990Z,7.47
2017-08-13T22:33:35.258Z,7.30
2017-08-13T22:36:03.511Z,6.77
2017-08-13T22:38:31.839Z,7.00
2017-08-13T22:41:00.136Z,7.57
2017-08-13T22:43:29.171Z,8.47
2017-08-13T22:45:57.804Z,6.57
2017-08-13T22:48:26.092Z,6.50
2017-08-13T22:50:54.367Z,7.60
2017-08-13T22:53:23.430Z,6.30
2017-08-13T22:55:51.749Z,7.07
2017-08-13T22:58:19.997Z,5.83
2017-08-13T23:00:48.665Z,6.13
2017-08-13T23:03:17.882Z,7.37
2017-08-13T23:05:46.133Z,6.53
2017-08-13T23:08:14.467Z,5.90
2017-08-13T23:10:42.726Z,8.43
2017-08-13T23:13:11.012Z,6.17
2017-08-13T23:15:39.333Z,6.27
2017-08-13T23:18:07.592Z,5.90
2017-08-13T23:20:35.847Z,6.70
2017-08-13T23:23:04.196Z,7.10
2017-08-13T23:25:33.229Z,7.70
2017-08-13T23:28:01.615Z,7.57
2017-08-13T23:30:29.908Z,7.73
2017-08-13T23:32:58.254Z,7.90
2017-08-13T23:35:26.602Z,6.87
2017-08-13T23:37:54.895Z,6.27
2017-08-13T23:40:23.908Z,6.33
2017-08-13T23:42:52.152Z,6.00
2017-08-13T23:45:21.208Z,7.80
2017-08-13T23:47:49.449Z,7.60
2017-08-13T23:50:17.771Z,7.43
2017-08-13T23:52:46.122Z,8.30
2017-08-13T23:55:14.505Z,8.13
2017-08-13T23:57:42.748Z,8.53
